Terminal Aerodrome Forecast
Issued by NWS Charleston, WV

Current Version | Previous Version | Graphics & Text | Print | Product List | Glossary On
Versions: 1 2 3 4 5 6 7 8 9 10 11 12 13 14 15 16 17 18 19 20 21 22 23 24 25 26 27 28 29 30 31 32 33 34 35
000
FTUS41 KRLX 242300
TAFEKN
TAF
KEKN 242320Z 2500/2524 00000KT P6SM SKC
     FM250500 00000KT 6SM BR SKC
     FM250600 00000KT 2SM BR SCT001
     FM250700 00000KT 1/4SM FG VV001
     FM251200 00000KT 2SM BR SCT002 BKN050
     FM251400 25005KT P6SM BKN040
     FM252200 26009G14KT P6SM BKN045=

USA.gov is the U.S. government's official web portal to all federal, state and local government web resources and services.